Terminal Aerodrome Forecast
Issued by NWS Portland, ME

Home | Current Version | Previous Version | Text Only | Print | Product List | Glossary On
Versions: 1 2 3 4 5 6 7 8 9 10 11 12 13 14 15 16 17
000
FTUS41 KGYX 231721
TAFPWM
TAF
KPWM 231721Z 2318/2418 22007KT P6SM SCT080
     FM232200 19004KT P6SM BKN200
     FM240800 15006KT P6SM -SHRA OVC025
     FM241300 15009G17KT 3SM -RA BR OVC008=

USA.gov is the U.S. government's official web portal to all federal, state and local government web resources and services.